createdAt,value
2018-07-03T00:00:58.832Z,1.50
2018-07-03T00:03:27.435Z,1.50
2018-07-03T00:05:56.068Z,1.43
2018-07-03T00:08:24.707Z,1.63
2018-07-03T00:10:53.396Z,1.70
2018-07-03T00:13:21.930Z,1.30
2018-07-03T00:15:50.791Z,1.60
2018-07-03T00:18:19.422Z,1.37
2018-07-03T00:20:48.315Z,1.33
2018-07-03T00:23:16.981Z,1.50
2018-07-03T00:25:45.640Z,1.43
2018-07-03T00:28:14.268Z,1.13
2018-07-03T00:30:42.956Z,1.20
2018-07-03T00:33:11.730Z,1.37
2018-07-03T00:35:40.392Z,1.70
2018-07-03T00:38:09.084Z,1.50
2018-07-03T00:40:37.996Z,1.23
2018-07-03T00:43:07.190Z,1.30
2018-07-03T00:45:35.901Z,1.33
2018-07-03T00:48:04.579Z,1.33
2018-07-03T00:50:33.377Z,1.53
2018-07-03T00:53:02.265Z,1.30
2018-07-03T00:55:31.051Z,1.30
2018-07-03T00:57:59.834Z,1.20
2018-07-03T01:00:34.092Z,1.27
2018-07-03T01:03:03.608Z,1.17
2018-07-03T01:05:32.605Z,1.70
2018-07-03T01:08:01.269Z,1.30
2018-07-03T01:10:29.968Z,1.40
2018-07-03T01:12:58.824Z,1.57
2018-07-03T01:15:28.392Z,1.13
2018-07-03T01:17:57.303Z,1.40
2018-07-03T01:20:26.001Z,1.27
2018-07-03T01:22:54.755Z,1.40
2018-07-03T01:25:23.470Z,1.30
2018-07-03T01:27:52.138Z,1.40
2018-07-03T01:30:20.885Z,1.43
2018-07-03T01:32:49.644Z,1.50
2018-07-03T01:35:18.356Z,1.40
2018-07-03T01:37:47.072Z,1.30
2018-07-03T01:40:15.832Z,1.80
2018-07-03T01:42:44.573Z,1.50
2018-07-03T01:45:13.242Z,1.33
2018-07-03T01:47:41.853Z,1.20
2018-07-03T01:50:10.573Z,1.30
2018-07-03T01:52:39.256Z,1.27
2018-07-03T01:55:07.904Z,1.33
2018-07-03T01:57:36.639Z,1.53
2018-07-03T02:00:05.996Z,1.40
2018-07-03T02:02:34.633Z,1.50
2018-07-03T02:05:03.385Z,1.30
2018-07-03T02:07:32.108Z,1.30
2018-07-03T02:10:00.789Z,1.30
2018-07-03T02:12:29.470Z,1.40
2018-07-03T02:14:58.232Z,1.67
2018-07-03T02:17:26.892Z,1.43
2018-07-03T02:19:55.576Z,1.43
2018-07-03T02:22:24.375Z,1.40
2018-07-03T02:24:53.088Z,1.53
2018-07-03T02:27:21.848Z,1.40
2018-07-03T02:29:50.638Z,1.50
2018-07-03T02:32:19.317Z,1.50
2018-07-03T02:34:48.141Z,1.50
2018-07-03T02:37:16.903Z,1.40
2018-07-03T02:39:45.537Z,1.40
2018-07-03T02:42:14.215Z,1.57
2018-07-03T02:44:43.012Z,1.80
2018-07-03T02:47:11.703Z,1.40
2018-07-03T02:49:40.408Z,1.30
2018-07-03T02:52:09.171Z,1.77
2018-07-03T02:54:37.846Z,1.47
2018-07-03T02:57:06.598Z,1.53
2018-07-03T02:59:35.409Z,1.40
2018-07-03T03:02:04.073Z,1.40
2018-07-03T03:04:33.053Z,1.47
2018-07-03T03:07:01.718Z,1.37
2018-07-03T03:09:30.392Z,1.30
2018-07-03T03:11:59.127Z,1.57
2018-07-03T03:14:27.829Z,1.40
2018-07-03T03:16:56.584Z,1.67
2018-07-03T03:19:25.231Z,1.80
2018-07-03T03:21:54.029Z,1.47
2018-07-03T03:24:22.726Z,1.27
2018-07-03T03:26:51.429Z,1.47
2018-07-03T03:29:20.121Z,1.40
2018-07-03T03:31:48.923Z,1.30
2018-07-03T03:34:17.548Z,1.30
2018-07-03T03:36:46.398Z,1.70
2018-07-03T03:39:15.112Z,1.60
2018-07-03T03:41:43.767Z,1.90
2018-07-03T03:44:12.533Z,1.70
2018-07-03T03:46:41.245Z,1.50
2018-07-03T03:49:09.897Z,1.40
2018-07-03T03:51:39.427Z,1.50
2018-07-03T03:54:08.229Z,1.40
2018-07-03T03:56:36.989Z,1.63
2018-07-03T03:59:05.945Z,1.87
2018-07-03T04:01:34.862Z,1.63
2018-07-03T04:04:03.557Z,1.77
2018-07-03T04:06:32.292Z,2.10
2018-07-03T04:09:01.185Z,1.70
2018-07-03T04:11:29.800Z,1.50
2018-07-03T04:13:58.552Z,1.67
2018-07-03T04:16:27.173Z,1.60
2018-07-03T04:18:55.875Z,1.60
2018-07-03T04:21:24.649Z,1.60
2018-07-03T04:23:53.321Z,1.73
2018-07-03T04:26:22.088Z,1.70
2018-07-03T04:28:50.720Z,1.87
2018-07-03T04:31:18.996Z,2.27
2018-07-03T04:33:47.309Z,2.30
2018-07-03T04:36:15.929Z,1.70
2018-07-03T04:38:44.566Z,1.70
2018-07-03T04:41:13.306Z,1.57
2018-07-03T04:43:41.936Z,1.70
2018-07-03T04:46:10.644Z,2.20
2018-07-03T04:48:39.257Z,1.63
2018-07-03T04:51:07.990Z,1.67
2018-07-03T04:53:36.635Z,2.00
2018-07-03T04:56:05.425Z,1.90
2018-07-03T04:58:34.105Z,1.90
2018-07-03T05:01:02.797Z,1.90
2018-07-03T05:03:31.449Z,1.90
2018-07-03T05:06:00.215Z,1.87
2018-07-03T05:08:28.856Z,1.77
2018-07-03T05:10:57.480Z,1.70
2018-07-03T05:13:26.100Z,2.40
2018-07-03T05:15:54.736Z,1.80
2018-07-03T05:18:23.488Z,1.90
2018-07-03T05:20:52.121Z,2.10
2018-07-03T05:23:20.748Z,2.10
2018-07-03T05:25:49.474Z,1.87
2018-07-03T05:28:18.057Z,1.97
2018-07-03T05:30:46.706Z,2.07
2018-07-03T05:33:15.340Z,1.70
2018-07-03T05:35:44.045Z,1.93
2018-07-03T05:38:12.698Z,2.10
2018-07-03T05:40:41.456Z,2.50
2018-07-03T05:43:10.210Z,1.90
2018-07-03T05:45:38.847Z,1.70
2018-07-03T05:48:07.534Z,1.87
2018-07-03T05:50:36.591Z,1.93
2018-07-03T05:53:05.449Z,1.90
2018-07-03T05:55:34.152Z,1.90
2018-07-03T05:58:02.765Z,1.60
2018-07-03T06:00:31.472Z,1.90
2018-07-03T06:03:00.118Z,1.90
2018-07-03T06:05:28.794Z,2.13
2018-07-03T06:07:57.466Z,2.00
2018-07-03T06:10:26.141Z,2.40
2018-07-03T06:12:54.845Z,2.37
2018-07-03T06:15:23.529Z,2.10
2018-07-03T06:17:52.196Z,2.30
2018-07-03T06:20:21.090Z,2.00
2018-07-03T06:22:49.805Z,2.43
2018-07-03T06:25:18.493Z,2.50
2018-07-03T06:27:47.173Z,2.30
2018-07-03T06:30:15.789Z,2.27
2018-07-03T06:32:44.580Z,2.17
2018-07-03T06:35:13.228Z,2.37
2018-07-03T06:37:42.027Z,2.33
2018-07-03T06:40:10.717Z,2.00
2018-07-03T06:42:39.348Z,2.63
2018-07-03T06:45:08.465Z,2.33
2018-07-03T06:47:37.279Z,2.60
2018-07-03T06:50:06.481Z,2.20
2018-07-03T06:52:35.168Z,2.20
2018-07-03T06:55:04.003Z,2.27
2018-07-03T06:57:32.636Z,2.20
2018-07-03T07:00:01.277Z,2.50
2018-07-03T07:02:29.959Z,1.90
2018-07-03T07:04:58.664Z,2.30
2018-07-03T07:07:27.433Z,1.80
2018-07-03T07:09:56.119Z,1.77
2018-07-03T07:12:24.847Z,1.77
2018-07-03T07:14:53.538Z,1.90
2018-07-03T07:17:22.179Z,2.37
2018-07-03T07:19:50.949Z,1.70
2018-07-03T07:22:19.573Z,1.67
2018-07-03T07:24:48.289Z,1.73
2018-07-03T07:27:17.012Z,1.80
2018-07-03T07:29:45.689Z,2.53
2018-07-03T07:32:14.424Z,2.10
2018-07-03T07:34:43.661Z,1.77
2018-07-03T07:37:12.418Z,1.60
2018-07-03T07:39:40.750Z,1.73
2018-07-03T07:42:09.481Z,1.70
2018-07-03T07:44:38.118Z,1.97
2018-07-03T07:47:06.772Z,1.63
2018-07-03T07:49:35.454Z,1.70
2018-07-03T07:52:04.144Z,1.97
2018-07-03T07:54:32.837Z,1.30
2018-07-03T07:57:01.481Z,1.30
2018-07-03T07:59:30.133Z,1.30
2018-07-03T08:01:58.786Z,1.20
2018-07-03T08:04:27.432Z,1.57
2018-07-03T08:06:56.093Z,1.30
2018-07-03T08:09:24.722Z,1.20
2018-07-03T08:11:53.629Z,1.40
2018-07-03T08:14:22.345Z,1.20
2018-07-03T08:16:51.143Z,1.27
2018-07-03T08:19:19.832Z,1.27
2018-07-03T08:21:48.533Z,1.20
2018-07-03T08:24:17.240Z,1.20
2018-07-03T08:26:45.911Z,1.30
2018-07-03T08:29:14.569Z,1.20
2018-07-03T08:31:43.257Z,1.27
2018-07-03T08:34:11.981Z,1.57
2018-07-03T08:36:40.729Z,1.10
2018-07-03T08:39:10.941Z,1.30
2018-07-03T08:41:39.709Z,1.13
2018-07-03T08:44:08.456Z,1.30
2018-07-03T08:46:37.188Z,1.10
2018-07-03T08:49:06.936Z,1.20
2018-07-03T08:51:35.851Z,1.10
2018-07-03T08:54:04.577Z,1.13
2018-07-03T08:56:33.245Z,1.07
2018-07-03T08:59:01.945Z,1.10
2018-07-03T09:01:30.728Z,0.93
2018-07-03T09:03:59.402Z,1.20
2018-07-03T09:06:28.158Z,1.40
2018-07-03T09:08:57.001Z,1.13
2018-07-03T09:11:25.726Z,1.00
2018-07-03T09:13:54.913Z,1.10
2018-07-03T09:16:23.569Z,1.20
2018-07-03T09:18:52.287Z,1.10
2018-07-03T09:21:20.948Z,1.10
2018-07-03T09:23:49.613Z,1.00
2018-07-03T09:26:18.457Z,1.13
2018-07-03T09:28:47.268Z,1.13
2018-07-03T09:31:16.050Z,1.20
2018-07-03T09:33:44.940Z,1.10
2018-07-03T09:36:13.708Z,1.10
2018-07-03T09:38:42.373Z,1.20
2018-07-03T09:41:11.004Z,1.10
2018-07-03T09:43:39.784Z,1.00
2018-07-03T09:46:08.481Z,1.10
2018-07-03T09:48:37.239Z,1.03
2018-07-03T09:51:05.876Z,1.30
2018-07-03T09:53:34.561Z,1.10
2018-07-03T09:56:03.188Z,1.13
2018-07-03T09:58:31.889Z,1.20
2018-07-03T10:01:04.717Z,1.03
2018-07-03T10:03:33.456Z,1.00
2018-07-03T10:06:02.138Z,1.30
2018-07-03T10:08:30.930Z,1.30
2018-07-03T10:10:59.583Z,1.40
2018-07-03T10:13:28.328Z,1.30
2018-07-03T10:15:57.037Z,1.23
2018-07-03T10:18:25.889Z,1.30
2018-07-03T10:20:54.668Z,1.10
2018-07-03T10:23:23.372Z,1.20
2018-07-03T10:25:52.166Z,1.30
2018-07-03T10:28:20.847Z,1.20
2018-07-03T10:30:49.514Z,1.40
2018-07-03T10:33:18.141Z,1.43
2018-07-03T10:35:46.807Z,1.30
2018-07-03T10:38:15.496Z,1.20
2018-07-03T10:40:44.279Z,1.17
2018-07-03T10:43:12.932Z,1.20
2018-07-03T10:45:41.959Z,1.20
2018-07-03T10:48:10.632Z,1.53
2018-07-03T10:50:39.331Z,1.20
2018-07-03T10:53:08.206Z,1.20
2018-07-03T10:55:36.973Z,1.20
2018-07-03T10:58:05.648Z,1.30
2018-07-03T11:00:34.368Z,1.13
2018-07-03T11:03:03.032Z,1.30
2018-07-03T11:05:31.705Z,1.47
2018-07-03T11:08:00.429Z,0.93
2018-07-03T11:10:29.369Z,1.20
2018-07-03T11:12:58.001Z,1.30
2018-07-03T11:15:26.691Z,1.20
2018-07-03T11:17:55.409Z,1.00
2018-07-03T11:20:24.086Z,1.10
2018-07-03T11:22:52.732Z,1.10
2018-07-03T11:25:21.354Z,1.20
2018-07-03T11:27:50.069Z,1.40
2018-07-03T11:30:18.726Z,1.17
2018-07-03T11:32:47.437Z,1.30
2018-07-03T11:35:16.105Z,1.10
2018-07-03T11:37:45.053Z,1.03
2018-07-03T11:40:13.740Z,1.20
2018-07-03T11:42:42.957Z,1.30
2018-07-03T11:45:11.627Z,1.00
2018-07-03T11:47:40.537Z,0.93
2018-07-03T11:50:09.427Z,1.30
2018-07-03T11:52:38.625Z,1.20
2018-07-03T11:55:07.943Z,1.10
2018-07-03T11:57:36.873Z,1.53
2018-07-03T12:00:06.426Z,1.37
2018-07-03T12:02:35.316Z,1.00
2018-07-03T12:05:04.134Z,1.47
2018-07-03T12:07:32.803Z,1.13
2018-07-03T12:10:01.472Z,1.00
2018-07-03T12:12:30.187Z,1.17
2018-07-03T12:14:58.949Z,1.10
2018-07-03T12:17:27.682Z,1.10
2018-07-03T12:19:56.445Z,1.20
2018-07-03T12:22:25.319Z,1.10
2018-07-03T12:24:54.032Z,1.27
2018-07-03T12:27:22.673Z,1.10
2018-07-03T12:29:51.493Z,1.20
2018-07-03T12:32:20.166Z,1.35
2018-07-03T12:34:48.789Z,1.30
2018-07-03T12:37:17.478Z,1.20
2018-07-03T12:39:46.156Z,1.30
2018-07-03T12:42:14.935Z,1.30
2018-07-03T12:44:43.806Z,1.20
2018-07-03T12:47:12.560Z,1.10
2018-07-03T12:49:41.359Z,1.10
2018-07-03T12:52:10.069Z,1.10
2018-07-03T12:54:38.904Z,1.30
2018-07-03T12:57:07.666Z,1.30
2018-07-03T12:59:36.372Z,1.45
2018-07-03T13:02:05.048Z,1.10
2018-07-03T13:04:33.821Z,1.30
2018-07-03T13:07:02.779Z,1.10
2018-07-03T13:09:31.437Z,1.35
2018-07-03T13:12:00.133Z,1.00
2018-07-03T13:14:28.791Z,1.07
2018-07-03T13:16:57.597Z,1.35
2018-07-03T13:19:26.256Z,1.10
2018-07-03T13:21:55.184Z,1.20
2018-07-03T13:24:23.820Z,1.10
2018-07-03T13:26:52.560Z,1.22
2018-07-03T13:29:21.298Z,1.00
2018-07-03T13:31:49.993Z,1.10
2018-07-03T13:34:18.737Z,0.93
2018-07-03T13:36:47.508Z,1.30
2018-07-03T13:39:16.192Z,1.10
2018-07-03T13:41:44.826Z,1.30
2018-07-03T13:44:13.497Z,1.27
2018-07-03T13:46:42.221Z,0.93
2018-07-03T13:49:11.089Z,1.20
2018-07-03T13:51:39.895Z,1.20
2018-07-03T13:54:08.688Z,1.10
2018-07-03T13:56:37.376Z,1.12
2018-07-03T13:59:06.001Z,1.27
2018-07-03T14:01:34.744Z,1.10
2018-07-03T14:04:03.428Z,0.90
2018-07-03T14:06:32.214Z,1.25
2018-07-03T14:09:00.936Z,1.03
2018-07-03T14:11:29.574Z,0.90
2018-07-03T14:13:58.294Z,1.20
2018-07-03T14:16:27.133Z,1.27
2018-07-03T14:18:55.957Z,1.15
2018-07-03T14:21:24.658Z,1.27
2018-07-03T14:23:53.416Z,1.40
2018-07-03T14:26:22.133Z,1.15
2018-07-03T14:28:50.777Z,1.00
2018-07-03T14:31:19.550Z,1.30
2018-07-03T14:33:48.215Z,1.10
2018-07-03T14:36:16.796Z,1.30
2018-07-03T14:38:45.489Z,1.47
2018-07-03T14:41:14.278Z,1.00
2018-07-03T14:43:42.988Z,1.20
2018-07-03T14:46:11.812Z,1.30
2018-07-03T14:48:40.453Z,1.25
2018-07-03T14:51:09.136Z,1.00
2018-07-03T14:53:37.936Z,1.10
2018-07-03T14:56:06.677Z,1.27
2018-07-03T14:58:35.471Z,1.20
2018-07-03T15:01:04.228Z,1.12
2018-07-03T15:03:32.837Z,1.12
2018-07-03T15:06:01.599Z,1.10
2018-07-03T15:08:30.486Z,1.22
2018-07-03T15:10:59.153Z,1.62
2018-07-03T15:13:27.935Z,1.07
2018-07-03T15:15:56.637Z,1.35
2018-07-03T15:18:29.575Z,1.10
2018-07-03T15:20:58.255Z,1.10
2018-07-03T15:23:27.119Z,1.20
2018-07-03T15:25:56.020Z,1.30
2018-07-03T15:28:24.983Z,1.40
2018-07-03T15:30:55.002Z,1.25
2018-07-03T15:33:24.037Z,2.40
2018-07-03T15:35:53.107Z,1.70
2018-07-03T15:38:21.804Z,1.60
2018-07-03T15:40:50.729Z,1.27
2018-07-03T15:43:19.426Z,1.40
2018-07-03T15:45:48.234Z,1.00
2018-07-03T15:48:17.079Z,1.30
2018-07-03T15:50:45.868Z,1.45
2018-07-03T15:53:14.592Z,1.32
2018-07-03T15:55:43.428Z,1.50
2018-07-03T15:58:12.106Z,1.30
2018-07-03T16:00:40.802Z,1.20
2018-07-03T16:03:20.754Z,1.30
2018-07-03T16:06:11.341Z,1.30
2018-07-03T16:08:51.096Z,1.52
2018-07-03T16:11:19.837Z,1.32
2018-07-03T16:13:48.645Z,1.20
2018-07-03T16:16:17.334Z,1.22
2018-07-03T16:18:45.964Z,1.27
2018-07-03T16:21:14.661Z,1.20
2018-07-03T16:23:43.945Z,1.20
2018-07-03T16:26:12.706Z,1.17
2018-07-03T16:28:42.585Z,1.10
2018-07-03T16:31:11.409Z,1.20
2018-07-03T16:33:40.049Z,1.20
2018-07-03T16:36:08.988Z,1.30
2018-07-03T16:38:37.920Z,1.00
2018-07-03T16:41:06.696Z,1.05
2018-07-03T16:43:35.478Z,1.35
2018-07-03T16:46:04.209Z,1.12
2018-07-03T16:48:32.905Z,1.20
2018-07-03T16:51:01.540Z,1.40
2018-07-03T16:53:30.238Z,1.60
2018-07-03T16:55:58.933Z,1.50
2018-07-03T16:58:27.571Z,1.10
2018-07-03T17:00:56.312Z,1.32
2018-07-03T17:03:24.947Z,1.25
2018-07-03T17:05:53.691Z,1.10
2018-07-03T17:08:22.400Z,1.30
2018-07-03T17:10:51.093Z,1.00
2018-07-03T17:13:19.803Z,1.17
2018-07-03T17:15:48.609Z,1.57
2018-07-03T17:18:17.382Z,1.07
2018-07-03T17:20:46.081Z,1.00
2018-07-03T17:23:14.880Z,1.10
2018-07-03T17:25:43.515Z,1.45
2018-07-03T17:28:12.200Z,1.50
2018-07-03T17:30:40.850Z,1.30
2018-07-03T17:33:10.646Z,1.35
2018-07-03T17:35:39.440Z,1.20
2018-07-03T17:38:08.159Z,1.27
2018-07-03T17:40:48.174Z,1.30
2018-07-03T17:45:30.880Z,1.12
2018-07-03T17:48:00.077Z,1.40
2018-07-03T17:50:28.841Z,1.20
2018-07-03T17:52:57.988Z,1.30
2018-07-03T17:55:26.977Z,1.27
2018-07-03T17:57:55.987Z,1.30
2018-07-03T18:00:24.677Z,1.17
2018-07-03T18:02:53.421Z,1.40
2018-07-03T18:05:22.618Z,1.40
2018-07-03T18:07:51.325Z,1.30
2018-07-03T18:10:20.025Z,1.30
2018-07-03T18:12:48.685Z,1.27
2018-07-03T18:15:17.676Z,1.20
2018-07-03T18:17:46.476Z,1.30
2018-07-03T18:20:15.249Z,1.30
2018-07-03T18:22:44.237Z,1.50
2018-07-03T18:25:13.230Z,1.10
2018-07-03T18:27:42.027Z,1.30
2018-07-03T18:30:12.242Z,1.40
2018-07-03T18:32:41.272Z,1.40
2018-07-03T18:35:10.234Z,1.10
2018-07-03T18:37:38.924Z,1.10
2018-07-03T18:40:07.935Z,1.32
2018-07-03T18:42:36.703Z,1.27
2018-07-03T18:45:06.216Z,1.20
2018-07-03T18:47:35.070Z,1.10
2018-07-03T18:50:04.213Z,1.20
2018-07-03T18:52:32.847Z,1.50
2018-07-03T18:55:01.596Z,1.47
2018-07-03T18:57:30.375Z,1.13
2018-07-03T18:59:59.337Z,1.30
2018-07-03T19:02:28.159Z,1.50
2018-07-03T19:04:56.920Z,1.20
2018-07-03T19:07:25.721Z,1.40
2018-07-03T19:09:54.395Z,1.50
2018-07-03T19:12:23.193Z,1.47
2018-07-03T19:14:51.877Z,1.40
2018-07-03T19:17:20.524Z,1.50
2018-07-03T19:19:49.245Z,1.60
2018-07-03T19:22:17.938Z,1.30
2018-07-03T19:24:46.617Z,1.47
2018-07-03T19:27:16.051Z,1.90
2018-07-03T19:29:44.861Z,1.50
2018-07-03T19:32:13.521Z,1.67
2018-07-03T19:34:42.249Z,1.50
2018-07-03T19:37:11.560Z,1.77
2018-07-03T19:39:40.343Z,1.50
2018-07-03T19:42:09.445Z,1.60
2018-07-03T19:44:38.473Z,1.70
2018-07-03T19:47:07.760Z,1.70
2018-07-03T19:49:36.458Z,1.37
2018-07-03T19:52:05.142Z,1.60
2018-07-03T19:54:33.754Z,1.73
2018-07-03T19:57:02.462Z,1.47
2018-07-03T19:59:31.109Z,1.70
2018-07-03T20:01:59.946Z,1.53
2018-07-03T20:04:29.228Z,1.60
2018-07-03T20:06:58.102Z,1.57
2018-07-03T20:09:26.890Z,1.93
2018-07-03T20:12:03.025Z,1.70
2018-07-03T20:14:31.837Z,1.60
2018-07-03T20:17:00.553Z,1.60
2018-07-03T20:19:29.266Z,1.70
2018-07-03T20:21:57.967Z,2.37
2018-07-03T20:24:26.712Z,4.30
2018-07-03T20:26:55.389Z,4.13
2018-07-03T20:29:24.109Z,3.20
2018-07-03T20:31:52.791Z,2.80
2018-07-03T20:34:21.650Z,3.37
2018-07-03T20:36:51.113Z,2.90
2018-07-03T20:39:19.765Z,2.90
2018-07-03T20:41:48.600Z,2.33
2018-07-03T20:44:17.237Z,2.10
2018-07-03T20:46:45.984Z,2.53
2018-07-03T20:49:14.603Z,2.37
2018-07-03T20:51:43.364Z,2.30
2018-07-03T20:54:12.449Z,2.80
2018-07-03T20:56:41.054Z,2.13
2018-07-03T20:59:09.697Z,2.77
2018-07-03T21:01:38.350Z,2.97
2018-07-03T21:04:06.736Z,2.87
2018-07-03T21:06:35.335Z,2.70
2018-07-03T21:09:04.459Z,2.67
2018-07-03T21:11:33.158Z,2.50
2018-07-03T21:14:01.836Z,2.60
2018-07-03T21:16:30.560Z,2.30
2018-07-03T21:18:59.409Z,2.83
2018-07-03T21:21:28.079Z,2.00
2018-07-03T21:23:56.684Z,2.37
2018-07-03T21:26:25.468Z,2.43
2018-07-03T21:28:54.107Z,2.00
2018-07-03T21:31:22.841Z,2.33
2018-07-03T21:33:51.445Z,2.30
2018-07-03T21:36:20.144Z,2.30
2018-07-03T21:38:48.978Z,2.10
2018-07-03T21:41:17.244Z,2.30
2018-07-03T21:43:45.872Z,2.10
2018-07-03T21:46:14.485Z,1.80
2018-07-03T21:48:43.235Z,2.00
2018-07-03T21:51:11.918Z,2.20
2018-07-03T21:53:40.846Z,2.40
2018-07-03T21:56:09.446Z,2.13
2018-07-03T21:58:38.144Z,2.00
2018-07-03T22:01:06.957Z,2.30
2018-07-03T22:03:35.677Z,2.10
2018-07-03T22:06:04.369Z,2.10
2018-07-03T22:08:32.976Z,2.60
2018-07-03T22:11:01.823Z,2.20
2018-07-03T22:13:30.597Z,2.27
2018-07-03T22:15:59.261Z,2.10
2018-07-03T22:18:27.739Z,2.20
2018-07-03T22:20:56.368Z,2.20
2018-07-03T22:23:25.234Z,2.10
2018-07-03T22:25:54.045Z,2.30
2018-07-03T22:28:22.780Z,2.00
2018-07-03T22:30:51.442Z,2.60
2018-07-03T22:33:20.084Z,2.40
2018-07-03T22:35:48.893Z,2.47
2018-07-03T22:38:17.660Z,2.47
2018-07-03T22:40:46.352Z,2.07
2018-07-03T22:43:15.109Z,2.10
2018-07-03T22:45:43.849Z,2.13
2018-07-03T22:48:12.800Z,2.40
2018-07-03T22:50:41.451Z,2.10
2018-07-03T22:53:10.119Z,2.20
2018-07-03T22:55:38.973Z,2.20
2018-07-03T22:58:07.561Z,2.30
2018-07-03T23:00:36.281Z,2.00
2018-07-03T23:03:04.996Z,2.00
2018-07-03T23:05:33.580Z,2.10
2018-07-03T23:08:02.336Z,2.10
2018-07-03T23:10:31.152Z,1.93
2018-07-03T23:12:59.864Z,2.20
2018-07-03T23:15:28.545Z,1.90
2018-07-03T23:17:57.693Z,1.97
2018-07-03T23:20:26.380Z,1.83
2018-07-03T23:22:55.133Z,2.20
2018-07-03T23:25:23.776Z,2.17
2018-07-03T23:27:52.408Z,2.00
2018-07-03T23:30:21.161Z,1.83
2018-07-03T23:32:49.811Z,2.17
2018-07-03T23:35:18.501Z,2.00
2018-07-03T23:37:47.156Z,2.00
2018-07-03T23:40:15.800Z,2.07
2018-07-03T23:42:44.465Z,1.80
2018-07-03T23:45:13.117Z,2.00
2018-07-03T23:47:53.488Z,1.73
2018-07-03T23:50:33.360Z,2.00
2018-07-03T23:53:13.064Z,2.10
2018-07-03T23:55:53.145Z,1.93
2018-07-03T23:58:33.169Z,1.83
